createdAt,value
2023-04-29T00:02:23.986Z,100.00
2023-04-29T00:04:57.672Z,100.00
2023-04-29T00:07:27.490Z,100.00
2023-04-29T00:09:57.005Z,100.00
2023-04-29T00:12:26.537Z,100.00
2023-04-29T00:14:56.058Z,100.00
2023-04-29T00:17:25.611Z,100.00
2023-04-29T00:19:57.670Z,100.00
2023-04-29T00:22:27.452Z,100.00
2023-04-29T00:24:56.969Z,100.00
2023-04-29T00:27:27.006Z,100.00
2023-04-29T00:29:57.362Z,100.00
2023-04-29T00:32:26.918Z,100.00
2023-04-29T00:34:59.098Z,100.00
2023-04-29T00:37:28.629Z,100.00
2023-04-29T00:39:58.147Z,100.00
2023-04-29T00:42:28.647Z,100.00
2023-04-29T00:44:58.198Z,100.00
2023-04-29T00:47:27.788Z,100.00
2023-04-29T00:49:59.937Z,100.00
2023-04-29T00:52:29.594Z,100.00
2023-04-29T00:55:03.320Z,100.00
2023-04-29T00:57:34.442Z,100.00
2023-04-29T01:00:04.613Z,100.00
2023-04-29T01:02:34.314Z,100.00
2023-04-29T01:05:06.949Z,100.00
2023-04-29T01:07:42.844Z,100.00
2023-04-29T01:10:15.287Z,100.00
2023-04-29T01:12:49.577Z,100.00
2023-04-29T01:15:25.486Z,100.00
2023-04-29T01:18:00.197Z,100.00
2023-04-29T01:20:33.840Z,100.00
2023-04-29T01:23:04.058Z,100.00
2023-04-29T01:25:36.614Z,100.00
2023-04-29T01:28:12.320Z,100.00
2023-04-29T01:30:48.894Z,100.00
2023-04-29T01:33:22.640Z,100.00
2023-04-29T01:36:03.694Z,100.00
2023-04-29T01:38:37.886Z,100.00
2023-04-29T01:41:14.208Z,100.00
2023-04-29T01:43:44.092Z,100.00
2023-04-29T01:46:14.062Z,100.00
2023-04-29T01:48:43.706Z,100.00
2023-04-29T01:51:13.319Z,100.00
2023-04-29T01:53:43.430Z,100.00
2023-04-29T01:56:15.670Z,100.00
2023-04-29T01:58:45.120Z,100.00
2023-04-29T02:01:14.847Z,100.00
2023-04-29T02:03:44.576Z,100.00
2023-04-29T02:06:14.519Z,100.00
2023-04-29T02:08:44.106Z,100.00
2023-04-29T02:11:16.453Z,100.00
2023-04-29T02:13:46.253Z,100.00
2023-04-29T02:16:17.438Z,100.00
2023-04-29T02:18:47.053Z,100.00
2023-04-29T02:21:16.590Z,100.00
2023-04-29T02:23:46.104Z,100.00
2023-04-29T02:26:18.201Z,100.00
2023-04-29T02:28:47.684Z,100.00
2023-04-29T02:31:17.130Z,100.00
2023-04-29T02:33:46.769Z,100.00
2023-04-29T02:36:16.297Z,100.00
2023-04-29T02:38:45.749Z,100.00
2023-04-29T02:41:22.181Z,100.00
2023-04-29T02:43:52.122Z,100.00
2023-04-29T02:46:22.087Z,100.00
2023-04-29T02:48:51.646Z,100.00
2023-04-29T02:51:21.248Z,100.00
2023-04-29T02:53:50.749Z,100.00
2023-04-29T02:56:23.502Z,100.00
2023-04-29T02:58:53.079Z,100.00
2023-04-29T03:01:22.587Z,100.00
2023-04-29T03:03:53.323Z,100.00
2023-04-29T03:06:23.034Z,100.00
2023-04-29T03:08:52.724Z,100.00
2023-04-29T03:11:25.271Z,100.00
2023-04-29T03:13:54.790Z,100.00
2023-04-29T03:16:24.558Z,100.00
2023-04-29T03:18:54.067Z,100.00
2023-04-29T03:21:23.560Z,100.00
2023-04-29T03:23:53.078Z,100.00
2023-04-29T03:26:25.901Z,100.00
2023-04-29T03:28:55.507Z,100.00
2023-04-29T03:31:25.724Z,100.00
2023-04-29T03:33:55.291Z,100.00
2023-04-29T03:36:24.797Z,100.00
2023-04-29T03:38:54.282Z,100.00
2023-04-29T03:41:27.174Z,100.00
2023-04-29T03:44:00.820Z,100.00
2023-04-29T03:46:30.824Z,100.00
2023-04-29T03:49:00.528Z,100.00
2023-04-29T03:51:30.249Z,100.00
2023-04-29T03:54:00.681Z,100.00
2023-04-29T03:56:32.754Z,100.00
2023-04-29T03:59:02.394Z,100.00
2023-04-29T04:01:31.932Z,100.00
2023-04-29T04:04:01.725Z,100.00
2023-04-29T04:06:31.524Z,100.00
2023-04-29T04:09:01.181Z,100.00
2023-04-29T04:11:33.543Z,100.00
2023-04-29T04:14:03.025Z,100.00
2023-04-29T04:16:32.628Z,100.00
2023-04-29T04:19:02.179Z,100.00
2023-04-29T04:21:31.813Z,100.00
2023-04-29T04:24:01.299Z,100.00
2023-04-29T04:26:33.463Z,100.00
2023-04-29T04:29:03.064Z,100.00
2023-04-29T04:31:32.755Z,100.00
2023-04-29T04:34:02.401Z,100.00
2023-04-29T04:36:32.769Z,100.00
2023-04-29T04:39:02.351Z,100.00
2023-04-29T04:41:34.453Z,100.00
2023-04-29T04:44:04.218Z,100.00
2023-04-29T04:46:33.719Z,100.00
2023-04-29T04:52:26.510Z,100.00
2023-04-29T04:54:56.313Z,100.00
2023-04-29T04:57:27.718Z,100.00
2023-04-29T04:59:57.215Z,100.00
2023-04-29T05:02:27.028Z,100.00
2023-04-29T05:04:56.651Z,100.00
2023-04-29T05:07:28.739Z,100.00
2023-04-29T05:09:58.452Z,100.00
2023-04-29T05:12:30.743Z,100.00
2023-04-29T05:15:00.677Z,100.00
2023-04-29T05:17:30.282Z,100.00
2023-04-29T05:19:59.828Z,100.00
2023-04-29T05:22:32.421Z,100.00
2023-04-29T05:25:04.247Z,100.00
2023-04-29T05:27:33.714Z,100.00
2023-04-29T05:30:03.240Z,100.00
2023-04-29T05:32:32.796Z,100.00
2023-04-29T05:35:03.069Z,100.00
2023-04-29T05:37:36.199Z,100.00
2023-04-29T05:40:05.724Z,100.00
2023-04-29T05:42:35.206Z,100.00
2023-04-29T05:45:04.803Z,100.00
2023-04-29T05:47:34.296Z,100.00
2023-04-29T05:50:04.235Z,100.00
2023-04-29T05:52:36.699Z,100.00
2023-04-29T05:55:06.515Z,100.00
2023-04-29T05:57:36.066Z,100.00
2023-04-29T06:00:07.100Z,100.00
2023-04-29T06:02:41.539Z,100.00
2023-04-29T06:05:17.763Z,100.00
2023-04-29T06:07:53.602Z,100.00
2023-04-29T06:10:23.135Z,100.00
2023-04-29T06:12:53.755Z,100.00
2023-04-29T06:15:23.260Z,100.00
2023-04-29T06:17:53.662Z,100.00
2023-04-29T06:20:23.297Z,100.00
2023-04-29T06:22:55.377Z,100.00
2023-04-29T06:25:24.857Z,100.00
2023-04-29T06:27:54.673Z,100.00
2023-04-29T06:30:24.303Z,100.00
2023-04-29T06:32:53.812Z,100.00
2023-04-29T06:35:23.621Z,100.00
2023-04-29T06:37:56.783Z,100.00
2023-04-29T06:40:26.599Z,100.00
2023-04-29T06:42:56.525Z,100.00
2023-04-29T06:45:26.252Z,100.00
2023-04-29T06:47:55.806Z,100.00
2023-04-29T06:50:26.309Z,100.00
2023-04-29T06:52:58.566Z,100.00
2023-04-29T06:55:28.123Z,100.00
2023-04-29T06:57:57.837Z,100.00
2023-04-29T07:00:27.309Z,100.00
2023-04-29T07:02:57.053Z,100.00
2023-04-29T07:05:26.748Z,100.00
2023-04-29T07:07:58.826Z,100.00
2023-04-29T07:10:29.097Z,100.00
2023-04-29T07:12:59.933Z,100.00
2023-04-29T07:15:30.098Z,100.00
2023-04-29T07:18:00.671Z,100.00
2023-04-29T07:20:30.513Z,100.00
2023-04-29T07:23:03.024Z,100.00
2023-04-29T07:25:33.214Z,100.00
2023-04-29T07:28:03.329Z,100.00
2023-04-29T07:30:33.346Z,100.00
2023-04-29T07:33:04.483Z,100.00
2023-04-29T07:35:34.447Z,100.00
2023-04-29T07:38:06.710Z,100.00
2023-04-29T07:40:36.357Z,100.00
2023-04-29T07:43:06.982Z,100.00
2023-04-29T07:45:36.494Z,100.00
2023-04-29T07:48:06.209Z,100.00
2023-04-29T07:50:37.353Z,100.00
2023-04-29T07:53:10.074Z,100.00
2023-04-29T07:55:40.608Z,100.00
2023-04-29T07:58:10.638Z,100.00
2023-04-29T08:00:40.218Z,100.00
2023-04-29T08:03:10.106Z,100.00
2023-04-29T08:05:39.992Z,100.00
2023-04-29T08:08:12.171Z,100.00
2023-04-29T08:10:44.114Z,100.00
2023-04-29T08:13:13.645Z,100.00
2023-04-29T08:15:43.211Z,100.00
2023-04-29T08:18:12.786Z,100.00
2023-04-29T08:20:42.257Z,100.00
2023-04-29T08:23:14.373Z,100.00
2023-04-29T08:25:44.621Z,100.00
2023-04-29T08:28:14.205Z,100.00
2023-04-29T08:30:44.156Z,100.00
2023-04-29T08:33:13.800Z,100.00
2023-04-29T08:35:43.671Z,100.00
2023-04-29T08:38:15.848Z,100.00
2023-04-29T08:40:47.124Z,100.00
2023-04-29T08:43:17.618Z,100.00
2023-04-29T08:45:47.401Z,100.00
2023-04-29T08:48:18.199Z,100.00
2023-04-29T08:50:48.173Z,100.00
2023-04-29T08:53:20.492Z,100.00
2023-04-29T08:55:50.936Z,100.00
2023-04-29T08:58:21.222Z,100.00
2023-04-29T09:00:51.405Z,100.00
2023-04-29T09:03:27.727Z,100.00
2023-04-29T09:05:58.936Z,100.00
2023-04-29T09:08:31.395Z,100.00
2023-04-29T09:11:01.445Z,100.00
2023-04-29T09:13:33.135Z,100.00
2023-04-29T09:16:02.937Z,100.00
2023-04-29T09:18:45.444Z,100.00
2023-04-29T09:21:22.311Z,100.00
2023-04-29T09:23:55.841Z,100.00
2023-04-29T09:26:25.471Z,100.00
2023-04-29T09:29:11.373Z,100.00
2023-04-29T09:31:41.164Z,100.00
2023-04-29T09:34:12.026Z,100.00
2023-04-29T09:36:46.492Z,100.00
2023-04-29T09:39:19.689Z,100.00
2023-04-29T09:42:03.426Z,100.00
2023-04-29T09:44:36.007Z,100.00
2023-04-29T09:47:07.091Z,100.00
2023-04-29T09:49:39.902Z,100.00
2023-04-29T09:52:10.951Z,100.00
2023-04-29T09:54:44.147Z,100.00
2023-04-29T09:57:15.889Z,100.00
2023-04-29T09:59:45.711Z,100.00
2023-04-29T10:02:18.687Z,100.00
2023-04-29T10:04:49.350Z,100.00
2023-04-29T10:07:20.411Z,100.00
2023-04-29T10:09:52.505Z,100.00
2023-04-29T10:12:23.567Z,100.00
2023-04-29T10:14:57.565Z,100.00
2023-04-29T10:17:30.084Z,100.00
2023-04-29T10:20:05.974Z,100.00
2023-04-29T10:22:42.699Z,100.00
2023-04-29T10:25:15.425Z,100.00
2023-04-29T10:27:45.813Z,100.00
2023-04-29T10:30:18.470Z,100.00
2023-04-29T10:32:51.519Z,100.00
2023-04-29T10:35:25.943Z,100.00
2023-04-29T10:37:56.646Z,100.00
2023-04-29T10:40:35.155Z,100.00
2023-04-29T10:43:04.849Z,100.00
2023-04-29T10:45:36.335Z,100.00
2023-04-29T10:48:16.729Z,100.00
2023-04-29T10:51:05.730Z,100.00
2023-04-29T10:53:35.747Z,100.00
2023-04-29T10:56:13.637Z,100.00
2023-04-29T10:58:47.492Z,100.00
2023-04-29T11:01:18.067Z,100.00
2023-04-29T11:03:55.427Z,100.00
2023-04-29T11:06:27.673Z,100.00
2023-04-29T11:09:05.270Z,100.00
2023-04-29T11:11:54.094Z,100.00
2023-04-29T11:14:26.614Z,100.00
2023-04-29T11:16:57.568Z,100.00
2023-04-29T11:19:29.594Z,100.00
2023-04-29T11:22:27.726Z,100.00
2023-04-29T11:25:00.644Z,100.00
2023-04-29T11:27:36.794Z,100.00
2023-04-29T11:30:08.660Z,100.00
2023-04-29T11:32:40.688Z,100.00
2023-04-29T11:35:11.864Z,100.00
2023-04-29T11:37:41.934Z,100.00
2023-04-29T11:40:13.651Z,100.00
2023-04-29T11:42:51.324Z,100.00
2023-04-29T11:45:21.612Z,100.00
2023-04-29T11:47:53.962Z,100.00
2023-04-29T11:50:25.122Z,100.00
2023-04-29T11:52:54.605Z,100.00
2023-04-29T11:55:24.128Z,100.00
2023-04-29T11:57:56.194Z,100.00
2023-04-29T12:00:25.794Z,100.00
2023-04-29T12:02:55.404Z,100.00
2023-04-29T12:05:30.277Z,100.00
2023-04-29T12:07:59.867Z,100.00
2023-04-29T12:10:29.765Z,100.00
2023-04-29T12:13:02.075Z,100.00
2023-04-29T12:15:32.301Z,100.00
2023-04-29T12:18:03.479Z,100.00
2023-04-29T12:20:33.330Z,100.00
2023-04-29T12:23:14.622Z,100.00
2023-04-29T12:25:44.461Z,100.00
2023-04-29T12:28:18.055Z,100.00
2023-04-29T12:30:48.006Z,100.00
2023-04-29T12:33:22.720Z,100.00
2023-04-29T12:35:53.157Z,100.00
2023-04-29T12:38:27.747Z,100.00
2023-04-29T12:40:57.356Z,100.00
2023-04-29T12:43:31.938Z,98.74
2023-04-29T12:46:04.325Z,99.22
2023-04-29T12:48:34.803Z,100.00
2023-04-29T12:51:04.943Z,100.00
2023-04-29T12:53:34.995Z,99.84
2023-04-29T12:56:04.975Z,100.00
2023-04-29T12:58:37.080Z,100.00
2023-04-29T13:01:06.943Z,100.00
2023-04-29T13:03:36.770Z,100.00
2023-04-29T13:06:08.759Z,100.00
2023-04-29T13:08:38.296Z,100.00
2023-04-29T13:11:08.082Z,100.00
2023-04-29T13:13:40.198Z,100.00
2023-04-29T13:16:11.521Z,100.00
2023-04-29T13:18:47.934Z,98.20
2023-04-29T13:21:28.364Z,97.00
2023-04-29T13:23:58.086Z,96.79
2023-04-29T13:26:28.071Z,95.34
2023-04-29T13:29:00.231Z,95.92
2023-04-29T13:31:29.718Z,94.62
2023-04-29T13:33:59.571Z,93.97
2023-04-29T13:36:30.440Z,94.12
2023-04-29T13:38:59.982Z,94.34
2023-04-29T13:41:34.045Z,92.32
2023-04-29T13:44:20.656Z,95.19
2023-04-29T13:46:57.614Z,93.77
2023-04-29T13:59:48.811Z,95.78
2023-04-29T14:02:25.600Z,97.71
2023-04-29T14:04:56.013Z,97.92
2023-04-29T14:07:26.069Z,97.13
2023-04-29T14:09:55.575Z,95.65
2023-04-29T14:12:25.253Z,96.09
2023-04-29T14:14:59.632Z,95.27
2023-04-29T14:17:30.195Z,94.31
2023-04-29T14:19:59.779Z,94.97
2023-04-29T14:22:29.710Z,93.72
2023-04-29T14:24:59.450Z,94.40
2023-04-29T14:27:28.915Z,93.52
2023-04-29T14:30:01.106Z,93.53
2023-04-29T14:32:30.697Z,96.98
2023-04-29T14:35:00.250Z,96.11
2023-04-29T14:37:29.724Z,96.58
2023-04-29T14:39:59.242Z,97.61
2023-04-29T14:42:28.718Z,98.14
2023-04-29T14:45:00.982Z,100.00
2023-04-29T14:47:30.751Z,100.00
2023-04-29T14:50:00.295Z,100.00
2023-04-29T14:52:29.765Z,100.00
2023-04-29T14:54:59.290Z,100.00
2023-04-29T14:57:30.118Z,100.00
2023-04-29T15:00:02.225Z,100.00
2023-04-29T15:02:31.752Z,100.00
2023-04-29T15:05:04.265Z,100.00
2023-04-29T15:07:33.808Z,100.00
2023-04-29T15:10:03.710Z,100.00
2023-04-29T15:12:33.470Z,100.00
2023-04-29T15:15:05.917Z,100.00
2023-04-29T15:17:35.608Z,100.00
2023-04-29T15:20:05.309Z,100.00
2023-04-29T15:22:34.828Z,100.00
2023-04-29T15:25:04.700Z,100.00
2023-04-29T15:27:34.648Z,100.00
2023-04-29T15:30:07.744Z,100.00
2023-04-29T15:32:37.431Z,100.00
2023-04-29T15:35:08.055Z,100.00
2023-04-29T15:37:37.560Z,100.00
2023-04-29T15:40:08.402Z,100.00
2023-04-29T15:42:37.974Z,100.00
2023-04-29T15:45:11.844Z,100.00
2023-04-29T15:47:41.559Z,100.00
2023-04-29T15:50:12.456Z,100.00
2023-04-29T15:52:41.928Z,100.00
2023-04-29T15:55:12.106Z,100.00
2023-04-29T15:57:42.891Z,100.00
2023-04-29T16:00:16.424Z,100.00
2023-04-29T16:02:46.264Z,100.00
2023-04-29T16:05:15.856Z,100.00
2023-04-29T16:07:45.741Z,100.00
2023-04-29T16:10:15.254Z,100.00
2023-04-29T16:12:44.810Z,100.00
2023-04-29T16:15:17.263Z,100.00
2023-04-29T16:17:46.795Z,100.00
2023-04-29T16:20:17.497Z,100.00
2023-04-29T16:22:46.994Z,100.00
2023-04-29T16:25:16.539Z,100.00
2023-04-29T16:27:46.041Z,100.00
2023-04-29T16:30:18.237Z,100.00
2023-04-29T16:32:48.046Z,100.00
2023-04-29T16:35:17.693Z,100.00
2023-04-29T16:37:47.174Z,100.00
2023-04-29T16:40:17.014Z,100.00
2023-04-29T16:42:46.599Z,100.00
2023-04-29T16:45:19.180Z,100.00
2023-04-29T16:47:49.979Z,100.00
2023-04-29T16:50:19.693Z,100.00
2023-04-29T16:52:49.431Z,100.00
2023-04-29T16:55:19.042Z,100.00
2023-04-29T16:57:48.525Z,100.00
2023-04-29T17:00:20.692Z,100.00
2023-04-29T17:02:51.238Z,100.00
2023-04-29T17:05:21.698Z,100.00
2023-04-29T17:07:52.036Z,100.00
2023-04-29T17:10:21.675Z,100.00
2023-04-29T17:12:51.169Z,100.00
2023-04-29T17:15:23.378Z,100.00
2023-04-29T17:17:55.165Z,100.00
2023-04-29T17:20:24.889Z,100.00
2023-04-29T17:22:54.668Z,100.00
2023-04-29T17:25:24.619Z,100.00
2023-04-29T17:27:56.337Z,100.00
2023-04-29T17:30:28.869Z,100.00
2023-04-29T17:32:58.366Z,100.00
2023-04-29T17:35:27.894Z,100.00
2023-04-29T17:37:57.381Z,100.00
2023-04-29T17:40:27.169Z,100.00
2023-04-29T17:42:56.781Z,100.00
2023-04-29T17:45:28.956Z,100.00
2023-04-29T17:47:58.506Z,100.00
2023-04-29T17:50:28.035Z,100.00
2023-04-29T17:52:57.564Z,100.00
2023-04-29T17:55:27.333Z,100.00
2023-04-29T17:57:58.411Z,100.00
2023-04-29T18:00:30.821Z,100.00
2023-04-29T18:03:00.445Z,100.00
2023-04-29T18:05:30.227Z,100.00
2023-04-29T18:07:59.776Z,100.00
2023-04-29T18:10:29.405Z,100.00
2023-04-29T18:12:58.990Z,100.00
2023-04-29T18:15:31.252Z,100.00
2023-04-29T18:18:00.811Z,100.00
2023-04-29T18:20:30.777Z,100.00
2023-04-29T18:23:00.314Z,100.00
2023-04-29T18:25:29.848Z,100.00
2023-04-29T18:28:08.101Z,100.00
2023-04-29T18:30:51.933Z,100.00
2023-04-29T18:33:21.560Z,100.00
2023-04-29T18:35:51.168Z,100.00
2023-04-29T18:38:21.215Z,100.00
2023-04-29T18:40:51.481Z,100.00
2023-04-29T18:43:24.622Z,100.00
2023-04-29T18:45:57.204Z,100.00
2023-04-29T18:48:27.841Z,100.00
2023-04-29T18:50:59.375Z,100.00
2023-04-29T18:53:30.122Z,100.00
2023-04-29T18:55:59.813Z,100.00
2023-04-29T18:58:30.003Z,100.00
2023-04-29T19:01:03.230Z,100.00
2023-04-29T19:03:32.956Z,100.00
2023-04-29T19:06:02.493Z,100.00
2023-04-29T19:08:32.032Z,100.00
2023-04-29T19:11:01.643Z,100.00
2023-04-29T19:13:31.246Z,100.00
2023-04-29T19:16:03.410Z,100.00
2023-04-29T19:18:33.100Z,100.00
2023-04-29T19:21:03.114Z,100.00
2023-04-29T19:23:32.600Z,100.00
2023-04-29T19:26:02.131Z,100.00
2023-04-29T19:28:31.619Z,100.00
2023-04-29T19:31:03.879Z,100.00
2023-04-29T19:33:33.522Z,100.00
2023-04-29T19:36:04.267Z,100.00
2023-04-29T19:38:33.789Z,100.00
2023-04-29T19:41:03.468Z,100.00
2023-04-29T19:43:32.931Z,100.00
2023-04-29T19:46:05.008Z,100.00
2023-04-29T19:48:34.547Z,100.00
2023-04-29T19:51:04.060Z,100.00
2023-04-29T19:53:33.556Z,100.00
2023-04-29T19:56:03.873Z,100.00
2023-04-29T19:58:33.419Z,100.00
2023-04-29T20:01:06.356Z,100.00
2023-04-29T20:03:39.424Z,100.00
2023-04-29T20:06:10.353Z,100.00
2023-04-29T20:08:40.269Z,100.00
2023-04-29T20:11:09.844Z,100.00
2023-04-29T20:13:39.549Z,100.00
2023-04-29T20:16:11.709Z,100.00
2023-04-29T20:18:41.246Z,100.00
2023-04-29T20:21:10.808Z,100.00
2023-04-29T20:23:40.302Z,100.00
2023-04-29T20:26:09.777Z,100.00
2023-04-29T20:28:39.267Z,100.00
2023-04-29T20:31:11.366Z,100.00
2023-04-29T20:33:40.942Z,100.00
2023-04-29T20:36:10.525Z,100.00
2023-04-29T20:38:40.471Z,100.00
2023-04-29T20:41:10.506Z,100.00
2023-04-29T20:43:40.005Z,100.00
2023-04-29T20:46:12.165Z,100.00
2023-04-29T20:48:42.326Z,100.00
2023-04-29T20:51:12.870Z,100.00
2023-04-29T20:53:42.424Z,100.00
2023-04-29T20:56:12.660Z,100.00
2023-04-29T20:58:42.158Z,100.00
2023-04-29T21:01:14.313Z,100.00
2023-04-29T21:03:43.830Z,100.00
2023-04-29T21:06:13.527Z,100.00
2023-04-29T21:08:43.031Z,100.00
2023-04-29T21:11:12.720Z,100.00
2023-04-29T21:13:42.198Z,100.00
2023-04-29T21:16:14.396Z,100.00
2023-04-29T21:18:43.939Z,100.00
2023-04-29T21:21:13.775Z,100.00
2023-04-29T21:23:43.286Z,100.00
2023-04-29T21:26:15.219Z,100.00
2023-04-29T21:28:45.475Z,100.00
2023-04-29T21:31:17.914Z,100.00
2023-04-29T21:33:47.819Z,100.00
2023-04-29T21:36:17.281Z,100.00
2023-04-29T21:38:46.767Z,100.00
2023-04-29T21:41:27.456Z,100.00
2023-04-29T21:43:57.728Z,100.00
2023-04-29T21:46:30.985Z,100.00
2023-04-29T21:49:00.639Z,100.00
2023-04-29T21:51:31.817Z,100.00
2023-04-29T21:54:01.376Z,100.00
2023-04-29T21:56:30.963Z,100.00
2023-04-29T21:59:00.438Z,100.00
2023-04-29T22:01:48.759Z,100.00
2023-04-29T22:04:19.384Z,100.00
2023-04-29T22:06:48.890Z,100.00
2023-04-29T22:09:18.742Z,100.00
2023-04-29T22:11:48.335Z,100.00
2023-04-29T22:14:18.299Z,100.00
2023-04-29T22:16:50.490Z,100.00
2023-04-29T22:19:19.977Z,100.00
2023-04-29T22:21:49.497Z,100.00
2023-04-29T22:24:19.025Z,100.00
2023-04-29T22:26:48.558Z,100.00
2023-04-29T22:29:19.377Z,100.00
2023-04-29T22:31:51.464Z,100.00
2023-04-29T22:34:21.472Z,100.00
2023-04-29T22:36:50.983Z,100.00
2023-04-29T22:39:20.536Z,100.00
2023-04-29T22:41:50.049Z,100.00
2023-04-29T22:44:19.832Z,100.00
2023-04-29T22:46:51.922Z,100.00
2023-04-29T22:49:21.416Z,100.00
2023-04-29T22:51:50.899Z,100.00
2023-04-29T22:54:20.481Z,100.00
2023-04-29T22:56:50.156Z,100.00
2023-04-29T22:59:19.627Z,100.00
2023-04-29T23:01:52.441Z,100.00
2023-04-29T23:04:23.453Z,100.00
2023-04-29T23:06:53.606Z,100.00
2023-04-29T23:09:23.187Z,100.00
2023-04-29T23:11:52.652Z,100.00
2023-04-29T23:14:23.654Z,100.00
2023-04-29T23:16:56.306Z,100.00
2023-04-29T23:19:26.156Z,100.00
2023-04-29T23:21:55.940Z,100.00
2023-04-29T23:24:25.608Z,100.00
2023-04-29T23:26:55.126Z,100.00
2023-04-29T23:29:24.915Z,100.00
2023-04-29T23:31:56.969Z,100.00
2023-04-29T23:34:26.481Z,100.00
2023-04-29T23:36:56.024Z,100.00
2023-04-29T23:39:25.596Z,100.00
2023-04-29T23:41:55.117Z,100.00
2023-04-29T23:44:25.289Z,100.00
2023-04-29T23:46:57.410Z,100.00
2023-04-29T23:49:26.967Z,100.00
2023-04-29T23:51:56.607Z,100.00
2023-04-29T23:54:26.137Z,100.00
2023-04-29T23:56:55.726Z,100.00
2023-04-29T23:59:25.566Z,100.00
